METAR KAVL 192354Z 00000KT 7SM OVC007 01/00 A3009 RMK AO2 SLP197 60010 T00060000 10006 21006 53012 $ 
METAR KAVL 192254Z 00000KT 7SM OVC007 00/00 A3007 RMK AO2 SLP192 T00000000 $ 
METAR KAVL 192154Z 20004KT 6SM BR OVC005 01/00 A3006 RMK AO2 SNE2057 SLP187 P0000 T00060000 $ 
SPECI KAVL 192101Z 18003KT 4SM BR OVC005 01/00 A3005 RMK AO2 SNE2057 P0000 $ 
METAR KAVL 192054Z 18003KT 2SM -SN FZFG OVC005 01/00 A3005 RMK AO2 SLP184 P0000 60010 T00060000 58008 $ 
SPECI KAVL 192033Z 18003KT 2SM -SN FZFG OVC005 01/00 A3006 RMK AO2 P0000 $ 
SPECI KAVL 191957Z 00000KT 2SM -SN FZFG OVC003 00/00 A3007 RMK AO2 CIG 003V007 P0000 $ 
SPECI KAVL 191946Z 00000KT 1/2SM -SN FZFG OVC005 00/00 A3008 RMK AO2 P0004 $ 
SPECI KAVL 191933Z 00000KT 1/2SM -SN FZFG BKN003 OVC008 01/00 A3008 RMK AO2 P0004 $ 
SPECI KAVL 191904Z 00000KT 1/2SM -SN FZFG OVC006 00/00 A3008 RMK AO2 P0001 $ 
METAR KAVL 191854Z 00000KT 1/4SM -SN FZFG OVC006 00/00 A3007 RMK AO2 PRESFR SLP191 P0006 T00000000 $ 
METAR KAVL 191754Z 36004KT 1/2SM -SN FZFG OVC007 M01/M01 A3008 RMK AO2 PRESFR SLP195 P0004 60010 T10061006 10028 21006 58033 $ 
METAR KAVL 191654Z 00000KT 3/4SM -SN FZFG OVC005 M01/M01 A3014 RMK AO2 SNB02 CIG 003V009 SLP216 P0003 T10061006 $ 
SPECI KAVL 191601Z 32005KT 1/2SM VV005 M01/M01 A3015 RMK AO2 $ 
METAR KAVL 191554Z 01005KT 1SM BKN009 OVC036 M01/M01 A3014 RMK AO2 SNEMM PRESFR SLP217 P0002 T10061006 $ 
SPECI KAVL 191501Z 34006KT 1SM -SN BKN009 OVC036 M01/M01 A3019 RMK AO2 P0000 $ 
METAR KAVL 191454Z 33006KT 1SM -SN BR SCT009 OVC036 M01/M01 A3018 RMK AO2 PRESRR SLP230 P0001 60001 T10061011 51030 $ 
SPECI KAVL 191444Z 35005KT 1SM -SN BR FEW011 OVC036 M01/M01 A3016 RMK AO2 P0000 $ 
SPECI KAVL 191421Z 36008KT 1SM -SN BKN022 OVC038 01/M03 A3016 RMK AO2 PRESRR P0000 $ 
METAR KAVL 191354Z 03007KT 6SM -SN BKN020 OVC038 02/M07 A3015 RMK AO2 SNB23 SLP217 P0000 T00171067 $ 
SPECI KAVL 191332Z 35007KT 310V020 9SM -SN BKN020 OVC038 02/M08 A3016 RMK AO2 SNB23 PRESRR P0000 $ 
METAR KAVL 191254Z 02005KT 10SM OVC038 02/M10 A3013 RMK AO2 SLP209 T00221100 $ 
METAR KAVL 191154Z 34007KT 10SM OVC060 02/M10 A3009 RMK AO2 SLP195 60000 T00221100 10028 20017 58007 $ 
METAR KAVL 191054Z 34006KT 10SM FEW032 OVC042 02/M09 A3009 RMK AO2 SLP196 T00221094 $ 
METAR KAVL 190954Z 32008KT 10SM OVC050 02/M08 A3012 RMK AO2 PRESRR SLP207 T00221078 $ 
METAR KAVL 190854Z 36009KT 10SM FEW055 OVC075 02/M04 A3011 RMK AO2 SNE06 SLP202 P0000 60000 T00221044 50004 $ 
METAR KAVL 190754Z 32009KT 9SM -SN BKN049 OVC100 02/M07 A3014 RMK AO2 SNE11B39 SLP211 P0000 T00221067 $ 
METAR KAVL 190654Z 30007KT 10SM -SN BKN060 OVC075 02/M07 A3015 RMK AO2 SNB51 SLP216 P0000 T00221067 $ 
METAR KAVL 190554Z 31007KT 10SM BKN060 OVC080 02/M06 A3010 RMK AO2 SNB31E36 SLP199 P0000 60000 T00171061 10022 20017 58007 $ 
METAR KAVL 190454Z 34012KT 10SM OVC110 02/M06 A3013 RMK AO2 SLP209 T00171061 400281033 $ 
METAR KAVL 190354Z 36012KT 10SM OVC110 02/M05 A3011 RMK AO2 SLP203 T00171050 $ 
METAR KAVL 190254Z 36007KT 320V030 10SM OVC110 02/M04 A3012 RMK AO2 SLP209 T00171044 58016 $ 
METAR KAVL 190154Z 35007KT 10SM OVC110 02/M03 A3015 RMK AO2 SLP218 T00171033 $ 
METAR KAVL 190054Z 00000KT 10SM SCT090 SCT110 02/M04 A3015 RMK AO2 SLP219 T00221039 $ 
METAR KAVL 182354Z 29004KT 10SM SCT075 BKN110 02/M03 A3017 RMK AO2 PRESRR SLP227 T00221033 10028 20017 53019 $ 
METAR KAVL 182254Z 32004KT 10SM OVC070 02/M04 A3015 RMK AO2 SLP219 T00221039 $ 
METAR KAVL 182154Z 00000KT 10SM SCT100 02/M03 A3011 RMK AO2 SLP208 T00221033 $ 
METAR KAVL 182054Z 00000KT 10SM CLR 03/M03 A3011 RMK AO2 PRESFR SLP206 T00281033 58023 $ 
METAR KAVL 181954Z 00000KT 10SM CLR 03/M04 A3014 RMK AO2 SLP215 T00281039 $ 
METAR KAVL 181854Z 00000KT 10SM CLR 02/M04 A3016 RMK AO2 SLP223 T00221044 $ 
METAR KAVL 181754Z 00000KT 10SM CLR 02/M04 A3018 RMK AO2 SLP232 T00171044 10017 21028 58012 $ 
METAR KAVL 181654Z VRB03KT 10SM CLR 01/M05 A3020 RMK AO2 SLP239 T00111050 $ 
METAR KAVL 181554Z 00000KT 10SM CLR 00/M06 A3021 RMK AO2 SLP243 T00001056 $ 
METAR KAVL 181454Z 32005KT 10SM CLR M01/M06 A3022 RMK AO2 SLP244 T10061056 50005 $ 
METAR KAVL 181354Z 35005KT 10SM CLR M01/M06 A3022 RMK AO2 SLP245 T10111061 $ 
METAR KAVL 181254Z 35008KT 10SM CLR M02/M07 A3022 RMK AO2 SLP243 T10221067 $ 
METAR KAVL 181154Z 36008KT 10SM CLR M03/M07 A3020 RMK AO2 SLP238 T10281067 11017 21033 53015 $ 
METAR KAVL 181054Z 36009KT 10SM CLR M03/M07 A3017 RMK AO2 SLP227 T10281067 $ 
METAR KAVL 180954Z 33012KT 10SM CLR M03/M07 A3017 RMK AO2 SLP224 T10281067 $ 
METAR KAVL 180854Z 35010KT 10SM CLR M02/M06 A3016 RMK AO2 SLP217 T10221061 51006 $ 
METAR KAVL 180754Z 36011KT 10SM CLR M02/M06 A3015 RMK AO2 SLP216 T10171061 $ 
METAR KAVL 180654Z 36010KT 10SM CLR M02/M06 A3015 RMK AO2 SLP213 T10171061 $ 
METAR KAVL 180554Z 35011KT 10SM CLR M02/M06 A3014 RMK AO2 SLP209 T10171056 10033 21017 51012 
METAR KAVL 180454Z 35009KT 10SM CLR M01/M06 A3013 RMK AO2 SLP207 T10111056 400891017 
METAR KAVL 180354Z 34009KT 10SM CLR M01/M05 A3012 RMK AO2 SLP204 T10061050 
METAR KAVL 180254Z 33016KT 10SM CLR 00/M04 A3010 RMK AO2 SLP197 T00001039 51015 
METAR KAVL 180154Z 36010KT 10SM CLR 01/M03 A3009 RMK AO2 SLP195 T00111033 
METAR KAVL 180054Z 35012KT 10SM CLR 02/M02 A3008 RMK AO2 SLP189 T00221022 
METAR KAVL 172354Z 36013KT 10SM CLR 03/M02 A3005 RMK AO2 SLP179 T00331022 10089 20033 51030 
METAR KAVL 172254Z 01013KT 10SM CLR 05/M03 A3002 RMK AO2 SLP167 T00501028 
METAR KAVL 172154Z 01014KT 10SM CLR 07/M05 A2999 RMK AO2 SLP154 T00671050 
METAR KAVL 172054Z 34010KT 310V010 10SM CLR 08/M05 A2996 RMK AO2 SLP142 T00831050 53013 
METAR KAVL 171954Z 36013KT 10SM CLR 08/M02 A2993 RMK AO2 SLP135 T00781017 
METAR KAVL 171854Z 34014KT 10SM CLR 09/M01 A2992 RMK AO2 SLP130 T00891006 
METAR KAVL 171854Z 34014KT 10SM CLR 09/M01 A2992 RMK AO2 SLP130 T00891006 
METAR KAVL 171854Z 34014KT 10SM CLR 09/M01 A2992 RMK AO2 SLP130 T00891006 
METAR KAVL 171754Z 34013G20KT 10SM CLR 09/M01 A2992 RMK AO2 SLP128 T00891011 10089 20061 58004 
METAR KAVL 171654Z 35011KT 10SM CLR 08/03 A2993 RMK AO2 SLP131 T00830028 
METAR KAVL 171454Z 34015KT 10SM CLR 07/03 A2993 RMK AO2 SLP134 T00670033 53012 
SPECI KAVL 171402Z 36009KT 10SM FEW011 SCT022 06/04 A2991 RMK AO2 
METAR KAVL 171354Z 36009G15KT 10SM SCT011 BKN022 06/04 A2992 RMK AO2 SLP131 T00610044 
SPECI KAVL 171307Z 35010KT 10SM SCT013 OVC018 06/04 A2991 RMK AO2 
METAR KAVL 171254Z 01009KT 320V030 10SM BKN013 OVC018 06/04 A2990 RMK AO2 SLP124 T00610044 
SPECI KAVL 171245Z 36008KT 10SM OVC011 06/04 A2990 RMK AO2 
METAR KAVL 171154Z 35011KT 10SM OVC009 07/06 A2989 RMK AO2 CIG 007V013 SLP120 60000 70005 T00670056 10067 20056 53008 
METAR KAVL 171054Z VRB06KT 10SM OVC007 07/06 A2987 RMK AO2 CIG 006V010 SLP113 T00670056 
METAR KAVL 170954Z 31005KT 10SM OVC007 06/06 A2987 RMK AO2 CIG 005V011 SLP113 T00610056 
METAR KAVL 170854Z VRB05KT 2SM BR OVC007 06/05 A2987 RMK AO2 SLP111 60000 T00610050 56004 
METAR KAVL 170754Z 33008KT 2SM BR BKN005 OVC041 06/06 A2987 RMK AO2 RAE07 SLP113 P0000 T00560056 
METAR KAVL 170654Z 35004KT 2SM -RA BR BKN007 OVC070 06/05 A2987 RMK AO2 RAE03B30 CIG 003V008 SLP113 P0000 T00560050 
SPECI KAVL 170625Z 31003KT 2SM BR BKN007 OVC070 06/05 A2987 RMK AO2 RAE03 P0000 
METAR KAVL 170554Z 02003KT 2 1/2SM -RA BR OVC070 06/05 A2988 RMK AO2 SLP117 P0000 60003 T00560050 10061 20050 58013 
SPECI KAVL 170558Z 04003KT 3SM -RA BR FEW007 OVC070 06/05 A2987 RMK AO2 P0000 
METAR KAVL 170554Z 02003KT 2 1/2SM -RA BR OVC070 06/05 A2988 RMK AO2 SLP117 P0000 60003 T00560050 10061 20050 58013 
METAR KAVL 170454Z 00000KT 3SM -RA BR FEW006 OVC045 06/05 A2990 RMK AO2 SLP124 P0000 T00560050 400831022 
SPECI KAVL 170436Z 14005KT 3SM -RA BR SCT024 OVC047 05/04 A2988 RMK AO2 P0000 
METAR KAVL 170354Z 17005KT 8SM -RA BKN029 OVC034 06/05 A2991 RMK AO2 RAE21B39 SLP130 P0001 T00560050 
SPECI KAVL 170338Z 19004KT 9SM BKN031 OVC050 06/05 A2992 RMK AO2 RAE21 P0001 
METAR KAVL 170254Z 16006KT 9SM -RA SCT012 BKN027 OVC055 06/04 A2992 RMK AO2 SLP133 P0002 60002 T00560044 56014 
SPECI KAVL 170223Z 18009KT 8SM -RA SCT010 BKN055 OVC075 05/04 A2993 RMK AO2 P0001 
METAR KAVL 170154Z 17012G21KT 10SM -RA OVC010 05/04 A2993 RMK AO2 RAB14 SLP138 P0000 T00500039 
METAR KAVL 170054Z 17011KT 10SM OVC010 06/04 A2995 RMK AO2 RAB19E40 SLP146 P0000 T00560044 
SPECI KAVL 170004Z 16011KT 10SM BKN012 OVC060 06/05 A2997 RMK AO2 
METAR KAVL 162354Z 18009KT 10SM SCT012 BKN060 06/05 A2996 RMK AO2 RAE01 SLP150 P0000 60000 T00610050 10083 20061 51004 
METAR KAVL 162254Z 17009KT 10SM -RA BKN075 OVC095 07/05 A2996 RMK AO2 RAE25B46 SLP150 P0000 T00670050 
METAR KAVL 162154Z 16006KT 10SM -RA OVC060 07/04 A2996 RMK AO2 RAE02B34 SLP148 P0000 T00720044 
METAR KAVL 162054Z 17004KT 10SM -RA OVC060 08/04 A2995 RMK AO2 RAB18 SLP145 P0000 60000 T00780039 56011 
METAR KAVL 161954Z 16003KT 10SM SCT065 BKN085 08/03 A2996 RMK AO2 RAE17 SLP150 P0000 T00780033